Terminal Aerodrome Forecast
Issued by NWS

Current Version | Previous Version | Text Only | Print | Product List | Glossary Off
Versions: 1 2 3 4 5 6 7 8 9 10 11 12 13 14 15 16 17 18 19 20 21 22 23 24

000
FTUS41 KRLX 121705 AAB
TAFCKB
TAF AMD
KCKB 121705Z 1217/1312 32012G24KT 3SM -SN OVC015
      TEMPO 1217/1218 1SM -SN BKN010
     FM121800 28013G26KT P6SM -SN BKN025
      TEMPO 1218/1222 2SM -SN BKN015
     FM122200 29015G27KT 2SM -SHSN BLSN OVC012
     FM130500 30016G24KT P6SM OVC050=

USA.gov is the U.S. government's official web portal to all federal, state and local government web resources and services.